Time;durP1;ratioP1;P1;durP2;ratioP2;P2;SDS_P1;SDS_P2;PMS_P1;PMS_P2;Temp;Humidity;BMP_temperature;BMP_pressure;BME280_temperature;BME280_humidity;BME280_pressure;Samples;Min_cycle;Max_cycle;Signal;HPM_P1;HPM_P2
2022/08/07 00:01:17;;;;;;;14.28;7.67;;;;;;;25.37;100.00;99575.15;1641450;86;21084;-67
2022/08/07 00:03:46;;;;;;;14.03;7.67;;;;;;;25.31;100.00;99574.02;1631160;85;21036;-73
2022/08/07 00:06:15;;;;;;;11.15;7.87;;;;;;;25.24;100.00;99571.48;1633270;87;21066;-68
2022/08/07 00:08:44;;;;;;;8.83;7.92;;;;;;;25.18;100.00;99579.42;1634119;87;21054;-67
2022/08/07 00:11:13;;;;;;;12.20;8.73;;;;;;;25.11;100.00;99581.70;1617421;87;21837;-67
2022/08/07 00:13:44;;;;;;;9.05;7.10;;;;;;;25.08;100.00;99575.50;1634529;85;21548;-71
2022/08/07 00:16:15;;;;;;;10.38;7.72;;;;;;;25.11;100.00;99574.66;1632843;87;21515;-66
2022/08/07 00:18:47;;;;;;;10.00;7.45;;;;;;;25.06;100.00;99573.08;1637958;87;21099;-69
2022/08/07 00:21:15;;;;;;;10.55;7.47;;;;;;;25.01;100.00;99582.80;1629133;87;21067;-66
2022/08/07 00:23:42;;;;;;;10.98;7.08;;;;;;;24.99;100.00;99581.63;1634458;87;21112;-66
2022/08/07 00:26:10;;;;;;;16.15;8.38;;;;;;;24.97;100.00;99580.64;1629189;86;21096;-67
2022/08/07 00:28:39;;;;;;;10.60;7.55;;;;;;;24.98;100.00;99585.65;1625916;86;21076;-68
2022/08/07 00:31:10;;;;;;;9.40;7.20;;;;;;;25.00;100.00;99585.44;1641567;85;21023;-67
2022/08/07 00:33:37;;;;;;;14.15;8.25;;;;;;;25.03;100.00;99587.41;1651930;85;21587;-68
2022/08/07 00:36:07;;;;;;;11.73;7.78;;;;;;;24.99;100.00;99582.41;1698136;82;21769;-65
2022/08/07 00:38:35;;;;;;;11.93;7.95;;;;;;;24.96;100.00;99587.48;1689464;84;21067;-67
2022/08/07 00:41:03;;;;;;;11.97;7.62;;;;;;;24.95;100.00;99589.30;1695611;82;20987;-66
2022/08/07 00:43:34;;;;;;;12.63;8.45;;;;;;;24.92;100.00;99590.33;1688390;84;21557;-68
2022/08/07 00:46:04;;;;;;;14.23;7.75;;;;;;;24.92;100.00;99591.73;1691375;82;21035;-69
2022/08/07 00:48:32;;;;;;;9.70;7.65;;;;;;;24.91;100.00;99589.34;1688413;84;21754;-66
2022/08/07 00:51:03;;;;;;;10.20;8.73;;;;;;;24.90;100.00;99587.72;1690917;82;21083;-67
2022/08/07 00:53:31;;;;;;;13.53;9.18;;;;;;;24.84;100.00;99587.98;1694102;83;21042;-66
2022/08/07 00:56:01;;;;;;;11.50;7.75;;;;;;;24.84;100.00;99595.03;1689043;84;21030;-66
2022/08/07 00:58:34;;;;;;;14.28;7.92;;;;;;;24.81;100.00;99588.20;1695992;82;20987;-66
2022/08/07 01:01:00;;;;;;;10.23;8.23;;;;;;;24.78;100.00;99601.11;1622254;86;21547;-66
2022/08/07 01:03:27;;;;;;;14.30;8.23;;;;;;;24.77;100.00;99599.50;1662977;84;21110;-65
2022/08/07 01:05:57;;;;;;;12.43;9.28;;;;;;;24.74;100.00;99605.16;1687693;84;20991;-68
2022/08/07 01:08:24;;;;;;;12.47;8.73;;;;;;;24.68;100.00;99606.23;1692875;82;21476;-68
2022/08/07 01:10:52;;;;;;;13.05;8.50;;;;;;;24.62;100.00;99609.28;1646927;86;21113;-66
2022/08/07 01:13:19;;;;;;;13.55;8.43;;;;;;;24.60;100.00;99604.06;1649969;84;21658;-66
2022/08/07 01:15:51;;;;;;;12.30;8.60;;;;;;;24.63;100.00;99616.53;1649635;86;21079;-65
2022/08/07 01:18:19;;;;;;;12.43;8.75;;;;;;;24.59;100.00;99611.52;1699133;82;21085;-67
2022/08/07 01:21:16;;;;;;;15.28;8.85;;;;;;;24.57;100.00;99609.75;1690752;84;21087;-66
2022/08/07 01:23:45;;;;;;;10.45;8.23;;;;;;;24.58;100.00;99612.16;1691458;84;21121;-66
2022/08/07 01:26:19;;;;;;;10.40;7.80;;;;;;;24.58;100.00;99609.34;1687968;84;21263;-69
2022/08/07 01:28:50;;;;;;;9.98;8.60;;;;;;;24.60;100.00;99611.73;1692890;82;21110;-68
2022/08/07 01:31:30;;;;;;;15.18;7.85;;;;;;;24.67;100.00;99610.24;1677525;84;21123;-67
2022/08/07 01:34:00;;;;;;;12.07;7.65;;;;;;;24.71;100.00;99607.41;1662619;84;21022;-67
2022/08/07 01:36:30;;;;;;;10.20;8.05;;;;;;;24.69;100.00;99607.82;1684380;84;21050;-68
2022/08/07 01:38:58;;;;;;;13.55;8.83;;;;;;;24.64;100.00;99611.08;1684414;82;21160;-65
2022/08/07 01:41:30;;;;;;;12.13;8.58;;;;;;;24.58;100.00;99605.71;1687063;84;21076;-66
2022/08/07 01:44:06;;;;;;;13.70;9.23;;;;;;;24.59;100.00;99614.34;1662131;84;21050;-65
2022/08/07 01:46:40;;;;;;;9.88;8.00;;;;;;;24.59;100.00;99608.11;1680532;82;21081;-66
2022/08/07 01:49:11;;;;;;;15.30;7.87;;;;;;;24.57;100.00;99609.75;1690286;82;21079;-65
2022/08/07 01:51:43;;;;;;;13.60;9.25;;;;;;;24.53;100.00;99611.97;1682105;84;21096;-66
2022/08/07 01:54:13;;;;;;;13.80;9.18;;;;;;;24.51;100.00;99617.23;1636771;84;21082;-66
2022/08/07 01:56:54;;;;;;;11.43;8.33;;;;;;;24.48;100.00;99614.44;1684011;83;21118;-65
2022/08/07 01:59:31;;;;;;;12.13;7.80;;;;;;;24.45;100.00;99617.46;1684668;82;21115;-68
2022/08/07 02:02:07;;;;;;;11.88;8.83;;;;;;;24.42;100.00;99616.89;1684103;83;20968;-64
2022/08/07 02:04:57;;;;;;;10.78;8.03;;;;;;;24.37;100.00;99613.10;1632513;87;21215;-67
2022/08/07 02:07:29;;;;;;;11.90;9.58;;;;;;;24.38;100.00;99606.28;1621014;87;21048;-67
2022/08/07 02:10:03;;;;;;;11.20;9.15;;;;;;;24.30;100.00;99613.95;1633420;87;21040;-65
2022/08/07 02:12:38;;;;;;;15.23;9.45;;;;;;;24.28;100.00;99618.59;1635019;87;21131;-67
2022/08/07 02:15:12;;;;;;;14.93;9.97;;;;;;;24.36;100.00;99613.70;1627498;86;21548;-66
2022/08/07 02:17:44;;;;;;;14.20;10.32;;;;;;;24.38;100.00;99620.35;1632041;85;21158;-66
2022/08/07 02:20:12;;;;;;;13.80;9.90;;;;;;;24.47;100.00;99617.05;1635480;85;21009;-66
2022/08/07 02:22:40;;;;;;;12.05;9.58;;;;;;;24.39;100.00;99622.75;1638175;85;20983;-66
2022/08/07 02:25:12;;;;;;;15.75;9.73;;;;;;;24.36;100.00;99617.14;1618420;86;20999;-65
2022/08/07 02:27:38;;;;;;;14.68;9.15;;;;;;;24.29;100.00;99617.99;1689414;82;21070;-69
2022/08/07 02:30:08;;;;;;;12.03;9.30;;;;;;;24.29;100.00;99617.37;1691609;82;22126;-65
2022/08/07 02:32:37;;;;;;;12.15;9.70;;;;;;;24.28;100.00;99616.38;1691502;82;21036;-67
2022/08/07 02:35:07;;;;;;;15.03;9.55;;;;;;;24.30;100.00;99612.55;1686439;83;21183;-65
2022/08/07 02:37:38;;;;;;;9.90;8.78;;;;;;;24.32;100.00;99615.75;1657418;84;21471;-67
2022/08/07 02:40:07;;;;;;;12.40;9.48;;;;;;;24.30;100.00;99616.17;1647782;85;21059;-65
2022/08/07 02:42:34;;;;;;;15.68;9.70;;;;;;;24.29;100.00;99620.19;1664794;82;21172;-67
2022/08/07 02:45:03;;;;;;;10.48;8.90;;;;;;;24.32;100.00;99617.16;1687572;84;21018;-66
2022/08/07 02:47:34;;;;;;;11.03;9.75;;;;;;;24.26;100.00;99618.83;1692325;82;21585;-65
2022/08/07 02:50:05;;;;;;;14.07;9.53;;;;;;;24.24;100.00;99619.84;1691191;82;20979;-65
2022/08/07 02:53:03;;;;;;;10.35;8.93;;;;;;;24.23;100.00;99619.02;1690445;82;21022;-65
2022/08/07 02:55:34;;;;;;;13.60;9.95;;;;;;;24.26;100.00;99619.61;1671787;84;21882;-68
2022/08/07 02:58:06;;;;;;;14.35;9.65;;;;;;;24.31;100.00;99623.39;1691528;82;21044;-65
2022/08/07 03:00:35;;;;;;;14.20;8.90;;;;;;;24.33;100.00;99632.05;1675603;84;21022;-70
2022/08/07 03:03:06;;;;;;;13.10;9.45;;;;;;;24.27;100.00;99624.04;1652752;84;21050;-65
2022/08/07 03:05:36;;;;;;;14.38;9.73;;;;;;;24.24;100.00;99625.47;1691775;84;21605;-70
2022/08/07 03:08:04;;;;;;;15.13;9.18;;;;;;;24.24;100.00;99628.28;1649950;85;21114;-65
2022/08/07 03:10:31;;;;;;;13.80;9.65;;;;;;;24.24;100.00;99630.47;1691040;82;21503;-65
2022/08/07 03:13:00;;;;;;;14.43;9.23;;;;;;;24.23;100.00;99640.13;1688905;84;21023;-65
2022/08/07 03:15:33;;;;;;;16.62;9.38;;;;;;;24.25;100.00;99633.49;1690397;84;20971;-67
2022/08/07 03:18:03;;;;;;;12.68;9.98;;;;;;;24.30;100.00;99638.69;1672630;84;21014;-67
2022/08/07 03:20:31;;;;;;;14.20;10.68;;;;;;;24.37;100.00;99637.03;1664707;84;21809;-67
2022/08/07 03:22:59;;;;;;;16.90;10.10;;;;;;;24.43;100.00;99632.55;1670894;84;21020;-66
2022/08/07 03:25:26;;;;;;;15.72;10.90;;;;;;;24.47;100.00;99636.16;1694509;84;21459;-65
2022/08/07 03:27:55;;;;;;;20.72;10.82;;;;;;;24.49;100.00;99634.33;1697287;82;21047;-67
2022/08/07 03:30:25;;;;;;;15.50;10.88;;;;;;;24.62;100.00;99638.25;1687143;83;21590;-67
2022/08/07 03:32:58;;;;;;;24.43;16.32;;;;;;;24.57;100.00;99639.32;1694659;82;21067;-65
2022/08/07 03:35:27;;;;;;;17.07;13.65;;;;;;;24.54;100.00;99640.33;1665228;84;21094;-66
2022/08/07 03:37:58;;;;;;;14.50;11.40;;;;;;;24.51;100.00;99639.76;1692784;82;21468;-67
2022/08/07 03:40:26;;;;;;;18.60;12.37;;;;;;;24.50;100.00;99637.33;1688639;84;21039;-67
2022/08/07 03:42:55;;;;;;;14.00;11.68;;;;;;;24.50;100.00;99642.36;1691227;82;21555;-66
2022/08/07 03:45:27;;;;;;;15.13;11.50;;;;;;;24.50;100.00;99638.73;1683757;84;21046;-66
2022/08/07 03:47:57;;;;;;;17.48;12.13;;;;;;;24.53;100.00;99644.34;1693994;82;21091;-67
2022/08/07 03:50:26;;;;;;;15.70;10.65;;;;;;;24.57;100.00;99644.95;1689787;82;21554;-67
2022/08/07 03:52:57;;;;;;;13.78;10.90;;;;;;;24.66;100.00;99646.08;1693832;82;21074;-67
2022/08/07 03:55:28;;;;;;;21.05;11.20;;;;;;;24.74;100.00;99651.63;1677153;84;21013;-66
2022/08/07 03:57:56;;;;;;;17.65;12.50;;;;;;;24.77;100.00;99654.42;1690908;82;22068;-65
2022/08/07 04:00:25;;;;;;;15.18;11.73;;;;;;;24.77;100.00;99653.64;1692201;84;21030;-65
2022/08/07 04:02:53;;;;;;;17.48;10.58;;;;;;;24.82;100.00;99650.98;1694046;82;21086;-74
2022/08/07 04:05:22;;;;;;;17.60;10.95;;;;;;;24.87;100.00;99660.39;1695321;84;21086;-65
2022/08/07 04:07:52;;;;;;;15.05;11.38;;;;;;;24.93;100.00;99657.34;1692527;82;21089;-65
2022/08/07 04:10:20;;;;;;;20.82;13.20;;;;;;;25.03;100.00;99664.90;1692695;82;21241;-66
2022/08/07 04:12:49;;;;;;;18.52;14.20;;;;;;;25.12;100.00;99665.02;1690727;82;21042;-65
2022/08/07 04:15:15;;;;;;;17.80;14.73;;;;;;;25.18;100.00;99664.75;1679763;84;21554;-65
2022/08/07 04:17:43;;;;;;;20.02;14.45;;;;;;;25.26;100.00;99662.67;1692671;82;21540;-65
2022/08/07 04:20:11;;;;;;;22.50;14.85;;;;;;;25.35;100.00;99664.38;1697321;82;21619;-67
2022/08/07 04:22:40;;;;;;;21.45;14.98;;;;;;;25.48;100.00;99661.84;1692227;84;21187;-65
2022/08/07 04:25:10;;;;;;;21.00;14.28;;;;;;;25.55;100.00;99668.01;1696284;84;21043;-68
2022/08/07 04:27:38;;;;;;;21.10;14.78;;;;;;;25.65;100.00;99673.36;1694635;83;21050;-67
2022/08/07 04:30:09;;;;;;;18.05;12.53;;;;;;;25.72;100.00;99674.70;1691369;84;21519;-65
2022/08/07 04:32:41;;;;;;;14.80;11.75;;;;;;;25.82;100.00;99680.61;1699020;83;21066;-75
2022/08/07 04:35:09;;;;;;;16.65;12.68;;;;;;;25.92;100.00;99678.27;1697000;83;21291;-73
2022/08/07 04:37:39;;;;;;;13.75;12.35;;;;;;;26.03;100.00;99678.75;1697453;82;21007;-67
2022/08/07 04:40:12;;;;;;;21.07;13.00;;;;;;;26.13;100.00;99679.22;1694850;83;21061;-65
2022/08/07 04:42:39;;;;;;;13.05;11.25;;;;;;;26.22;100.00;99682.30;1671866;82;21154;-75
2022/08/07 04:45:07;;;;;;;13.32;11.25;;;;;;;26.31;100.00;99680.97;1719226;82;21140;-72
2022/08/07 04:48:01;;;;;;;16.85;9.98;;;;;;;26.32;100.00;99679.77;1712204;82;21067;-65
2022/08/07 04:50:45;;;;;;;14.80;11.15;;;;;;;26.40;100.00;99672.81;1725985;82;21313;-65
2022/08/07 04:53:22;;;;;;;12.93;10.55;;;;;;;26.48;100.00;99672.89;1710789;82;21494;-66
2022/08/07 04:56:19;;;;;;;14.87;10.65;;;;;;;26.60;100.00;99674.32;1707118;82;21023;-68
2022/08/07 04:58:57;;;;;;;11.97;9.45;;;;;;;26.66;100.00;99678.89;1698439;82;21078;-64
2022/08/07 05:01:42;;;;;;;12.80;9.85;;;;;;;26.76;100.00;99672.06;1714391;82;21119;-69
2022/08/07 05:04:21;;;;;;;13.90;10.32;;;;;;;26.82;100.00;99676.80;1706673;82;21075;-65
2022/08/07 05:07:10;;;;;;;17.40;10.70;;;;;;;26.93;100.00;99673.80;1706209;82;21074;-65
2022/08/07 05:09:43;;;;;;;13.05;10.25;;;;;;;27.04;100.00;99678.50;1705768;83;21102;-68
2022/08/07 05:12:17;;;;;;;17.73;10.40;;;;;;;27.16;100.00;99677.86;1707110;83;21057;-67
2022/08/07 05:14:45;;;;;;;14.23;9.78;;;;;;;27.27;100.00;99672.63;1700318;83;21116;-66
2022/08/07 05:17:14;;;;;;;12.73;8.93;;;;;;;27.36;100.00;99679.14;1690831;83;21292;-65
2022/08/07 05:19:46;;;;;;;12.28;8.43;;;;;;;27.43;100.00;99678.38;1682016;83;21002;-70
2022/08/07 05:22:14;;;;;;;11.05;8.20;;;;;;;27.56;100.00;99672.09;1650955;85;21066;-66
2022/08/07 05:24:41;;;;;;;11.05;8.15;;;;;;;27.65;100.00;99661.61;1636744;87;21031;-65
2022/08/07 05:27:14;;;;;;;11.03;7.67;;;;;;;27.74;100.00;99668.91;1632327;87;21119;-74
2022/08/07 05:29:42;;;;;;;14.83;7.10;;;;;;;27.81;100.00;99658.06;1644154;86;21095;-64
2022/08/07 05:32:17;;;;;;;14.33;8.08;;;;;;;27.90;100.00;99658.28;1654605;85;21614;-66
2022/08/07 05:34:45;;;;;;;7.92;7.12;;;;;;;27.99;100.00;99652.65;1702120;83;20991;-69
2022/08/07 05:37:14;;;;;;;9.83;7.17;;;;;;;28.09;100.00;99657.89;1694068;83;21038;-65
2022/08/07 05:39:45;;;;;;;13.95;7.87;;;;;;;28.14;100.00;99652.52;1703310;83;21038;-71
2022/08/07 05:42:13;;;;;;;24.15;8.25;;;;;;;28.23;100.00;99656.77;1704637;83;21062;-77
2022/08/07 05:44:45;;;;;;;10.70;7.47;;;;;;;28.30;100.00;99645.29;1708830;83;21019;-68
2022/08/07 05:47:13;;;;;;;10.85;7.33;;;;;;;28.36;100.00;99644.96;1698877;82;21490;-71
2022/08/07 05:49:40;;;;;;;16.57;7.87;;;;;;;28.42;100.00;99643.19;1708015;82;21673;-68
2022/08/07 05:52:09;;;;;;;8.78;7.37;;;;;;;28.49;100.00;99646.47;1705935;82;21020;-64
2022/08/07 05:54:37;;;;;;;12.70;7.20;;;;;;;28.55;100.00;99645.33;1689420;83;21034;-71
2022/08/07 05:57:09;;;;;;;9.33;7.62;;;;;;;28.60;100.00;99643.99;1711754;83;21046;-73
2022/08/07 05:59:39;;;;;;;11.40;8.43;;;;;;;28.65;100.00;99650.55;1703047;82;21015;-72
2022/08/07 06:02:12;;;;;;;8.40;7.50;;;;;;;28.71;100.00;99650.22;1694545;83;21007;-66
2022/08/07 06:04:46;;;;;;;11.90;8.00;;;;;;;28.74;100.00;99645.07;1706933;82;21081;-72
2022/08/07 06:07:12;;;;;;;;;;;;;;;28.77;100.00;99641.95;1700232;83;21086;-69
2022/08/07 06:09:42;;;;;;;10.48;6.72;;;;;;;28.82;100.00;99645.67;1701714;83;20224;-71
2022/08/07 06:12:11;;;;;;;10.65;7.60;;;;;;;28.88;100.00;99648.14;1696216;83;21081;-66
2022/08/07 06:14:39;;;;;;;10.63;7.78;;;;;;;28.94;100.00;99648.41;1646555;85;21079;-66
2022/08/07 06:17:11;;;;;;;8.70;7.78;;;;;;;29.02;100.00;99645.59;1635726;85;21792;-65
2022/08/07 06:19:39;;;;;;;9.13;7.03;;;;;;;29.09;100.00;99652.33;1703297;83;21035;-65
2022/08/07 06:22:09;;;;;;;8.33;7.28;;;;;;;29.28;100.00;99644.30;1705048;83;21492;-66
2022/08/07 06:24:38;;;;;;;10.75;7.15;;;;;;;29.16;100.00;99643.61;1711057;83;21007;-68
2022/08/07 06:27:10;;;;;;;10.90;8.30;;;;;;;29.18;100.00;99643.97;1663916;83;21016;-69
2022/08/07 06:29:39;;;;;;;9.38;7.75;;;;;;;29.20;100.00;99647.16;1665262;83;21234;-65
2022/08/07 06:32:06;;;;;;;8.10;7.30;;;;;;;29.27;100.00;99649.00;1685879;84;21081;-65
2022/08/07 06:34:36;;;;;;;9.98;7.65;;;;;;;29.35;100.00;99648.17;1629611;87;21123;-65
2022/08/07 06:37:04;;;;;;;8.13;7.20;;;;;;;29.40;100.00;99653.30;1630603;87;21195;-64
2022/08/07 06:39:35;;;;;;;7.87;7.08;;;;;;;29.48;100.00;99649.66;1629854;86;21000;-65
2022/08/07 06:42:09;;;;;;;10.38;8.40;;;;;;;29.54;100.00;99642.17;1636340;87;21557;-67
2022/08/07 06:44:56;;;;;;;9.60;7.92;;;;;;;29.60;100.00;99641.81;1616211;87;21020;-69
2022/08/07 06:47:23;;;;;;;17.85;8.13;;;;;;;29.65;100.00;99641.88;1608035;88;21090;-65
2022/08/07 06:49:51;;;;;;;12.28;8.45;;;;;;;29.71;100.00;99643.55;1615828;86;21590;-64
2022/08/07 06:52:21;;;;;;;8.60;7.28;;;;;;;29.75;100.00;99635.73;1691846;82;21055;-70
2022/08/07 06:54:50;;;;;;;14.65;7.70;;;;;;;29.83;100.00;99637.72;1695548;82;21459;-67
2022/08/07 06:57:18;;;;;;;9.70;7.85;;;;;;;29.86;100.00;99630.52;1693522;82;21043;-66
2022/08/07 06:59:50;;;;;;;10.82;7.45;;;;;;;29.92;100.00;99634.22;1638626;85;21076;-69
2022/08/07 07:02:21;;;;;;;11.33;7.28;;;;;;;29.93;100.00;99629.52;1624566;86;21576;-69
2022/08/07 07:04:50;;;;;;;11.70;7.90;;;;;;;30.01;100.00;99631.49;1644725;87;21047;-67
2022/08/07 07:07:18;;;;;;;11.88;7.65;;;;;;;30.06;100.00;99633.00;1644404;85;21452;-68
2022/08/07 07:09:54;;;;;;;12.43;7.22;;;;;;;30.12;100.00;99628.33;1642085;85;21561;-67
2022/08/07 07:12:43;;;;;;;;;;;;;;;30.19;100.00;99630.95;1648769;85;21032;-68
2022/08/07 07:15:24;;;;;;;10.90;8.40;;;;;;;30.20;100.00;99629.69;1649566;86;20911;-66
2022/08/07 07:18:18;;;;;;;9.08;7.75;;;;;;;30.25;100.00;99629.77;1649281;87;21055;-66
2022/08/07 07:20:55;;;;;;;9.03;7.80;;;;;;;30.27;100.00;99638.64;1657614;85;21458;-65
2022/08/07 07:23:24;;;;;;;8.45;7.15;;;;;;;30.33;100.00;99636.81;1676451;85;21540;-67
2022/08/07 07:25:58;;;;;;;10.20;7.75;;;;;;;30.41;100.00;99643.69;1676936;84;21024;-69
2022/08/07 07:28:37;;;;;;;8.78;7.87;;;;;;;30.48;100.00;99640.63;1663225;85;21056;-70
2022/08/07 07:31:20;;;;;;;8.83;7.92;;;;;;;30.56;100.00;99646.23;1657620;85;21057;-66
2022/08/07 07:33:53;;;;;;;9.48;7.65;;;;;;;30.61;100.00;99651.35;1636696;86;21255;-65
2022/08/07 07:36:21;;;;;;;12.58;8.00;;;;;;;30.68;100.00;99646.67;1661584;85;21097;-64
2022/08/07 07:38:52;;;;;;;12.73;7.08;;;;;;;30.70;100.00;99647.81;1623755;86;21140;-64
2022/08/07 07:41:22;;;;;;;11.05;7.12;;;;;;;30.71;100.00;99646.55;1625246;88;21054;-65
2022/08/07 07:43:53;;;;;;;7.58;6.65;;;;;;;30.73;100.00;99638.98;1625365;87;21033;-66
2022/08/07 07:46:24;;;;;;;10.05;7.97;;;;;;;30.77;100.00;99645.98;1625308;87;21616;-65
2022/08/07 07:48:53;;;;;;;9.03;8.23;;;;;;;30.85;100.00;99653.84;1625255;87;21153;-67
2022/08/07 07:51:20;;;;;;;9.08;7.62;;;;;;;30.92;100.00;99646.30;1625555;87;21073;-66
2022/08/07 07:53:46;;;;;;;12.78;7.22;;;;;;;30.97;100.00;99649.38;1625190;87;21014;-67
2022/08/07 07:56:17;;;;;;;7.55;6.55;;;;;;;31.02;100.00;99650.83;1632554;85;21034;-70
2022/08/07 07:58:44;;;;;;;8.13;7.05;;;;;;;31.10;100.00;99649.32;1689204;82;21533;-64
2022/08/07 08:01:12;;;;;;;9.48;6.90;;;;;;;31.24;100.00;99650.72;1703413;82;21058;-66
2022/08/07 08:03:40;;;;;;;9.10;6.67;;;;;;;31.25;100.00;99649.45;1688995;82;21051;-68
2022/08/07 08:06:10;;;;;;;7.97;7.03;;;;;;;31.34;100.00;99653.77;1696290;82;21113;-66
2022/08/07 08:08:41;;;;;;;12.65;6.53;;;;;;;31.42;100.00;99650.89;1715844;82;20980;-69
2022/08/07 08:11:09;;;;;;;8.53;7.15;;;;;;;31.49;100.00;99646.18;1718131;82;21216;-67
2022/08/07 08:13:39;;;;;;;7.30;6.08;;;;;;;31.56;100.00;99646.70;1661883;84;21110;-70
2022/08/07 08:16:09;;;;;;;13.93;6.85;;;;;;;31.67;100.00;99643.46;1637568;86;21060;-66
2022/08/07 08:18:38;;;;;;;9.83;6.87;;;;;;;31.77;100.00;99642.88;1646956;85;21089;-65
2022/08/07 08:27:03;;;;;;;9.03;6.50;;;;;;;31.83;100.00;99644.51;1623681;85;21125;-65
2022/08/07 08:29:13;;;;;;;7.25;6.33;;;;;;;31.87;100.00;99640.10;1643585;85;21079;-67
2022/08/07 08:31:41;;;;;;;9.40;6.17;;;;;;;31.96;100.00;99642.98;1610684;86;21476;-67
2022/08/07 08:34:08;;;;;;;7.17;6.35;;;;;;;32.05;100.00;99639.42;1655922;85;21074;-65
2022/08/07 08:36:35;;;;;;;11.60;6.75;;;;;;;32.12;100.00;99634.08;1659953;85;21075;-66
2022/08/07 08:39:06;;;;;;;8.90;6.72;;;;;;;32.18;100.00;99627.92;1658205;85;21062;-69
2022/08/07 08:41:56;;;;;;;5.87;5.28;;;;;;;32.17;100.00;99624.30;1606942;86;21654;-70
2022/08/07 08:44:41;;;;;;;8.08;5.92;;;;;;;32.24;100.00;99622.41;1658117;86;21087;-68
2022/08/07 08:47:33;;;;;;;8.78;6.47;;;;;;;32.29;100.00;99622.60;1663008;84;22279;-66
2022/08/07 08:50:35;;;;;;;7.30;5.65;;;;;;;32.29;100.00;99623.22;1672139;84;21322;-67
2022/08/07 08:53:25;;;;;;;7.85;5.72;;;;;;;32.30;100.00;99612.78;1667613;84;21000;-67
2022/08/07 08:56:09;;;;;;;7.53;5.72;;;;;;;32.42;100.00;99614.55;1656113;84;21058;-66
2022/08/07 08:58:55;;;;;;;11.30;5.55;;;;;;;32.45;100.00;99606.47;1666972;84;21054;-67
2022/08/07 09:01:35;;;;;;;5.28;4.87;;;;;;;32.40;100.00;99605.05;1670836;84;21062;-65
2022/08/07 09:04:12;;;;;;;9.13;5.25;;;;;;;32.31;100.00;99609.30;1672628;84;21898;-65
2022/08/07 09:07:13;;;;;;;7.58;4.58;;;;;;;32.27;100.00;99609.45;1670459;84;22150;-66
2022/08/07 09:10:09;;;;;;;6.30;5.62;;;;;;;32.27;100.00;99608.02;1667584;84;21071;-66
2022/08/07 09:12:47;;;;;;;7.60;5.40;;;;;;;32.34;100.00;99614.06;1665939;84;21583;-65
2022/08/07 09:15:34;;;;;;;6.17;5.30;;;;;;;32.33;100.00;99611.69;1667266;84;21008;-66
2022/08/07 09:18:42;;;;;;;13.65;5.87;;;;;;;32.30;100.00;99606.28;1671718;84;21109;-66
2022/08/07 09:21:20;;;;;;;6.37;4.97;;;;;;;32.19;100.00;99601.80;1672696;84;21055;-67
2022/08/07 09:24:42;;;;;;;7.60;4.55;;;;;;;31.97;100.00;99606.14;1664335;84;21074;-66
2022/08/07 09:27:28;;;;;;;7.72;4.85;;;;;;;31.84;100.00;99613.34;1647678;86;21060;-68
2022/08/07 09:30:08;;;;;;;8.28;5.20;;;;;;;31.71;100.00;99613.44;1647378;86;21024;-64
2022/08/07 09:33:09;;;;;;;7.67;5.75;;;;;;;31.63;100.00;99617.83;1644247;86;21658;-66
2022/08/07 09:36:04;;;;;;;9.53;6.03;;;;;;;31.64;100.00;99620.82;1645976;86;21056;-65
2022/08/07 09:38:47;;;;;;;9.05;4.90;;;;;;;31.48;100.00;99628.30;1644375;86;21104;-66
2022/08/07 09:41:37;;;;;;;6.15;4.47;;;;;;;31.43;100.00;99624.63;1651168;85;21067;-66
2022/08/07 09:44:47;;;;;;;6.70;4.20;;;;;;;31.34;100.00;99631.81;1643824;86;21009;-66
2022/08/07 09:47:36;;;;;;;9.03;4.42;;;;;;;31.22;100.00;99622.08;1669311;85;21195;-66
2022/08/07 09:50:48;;;;;;;6.62;4.97;;;;;;;31.13;100.00;99624.87;1644216;86;21136;-66
2022/08/07 09:53:21;;;;;;;5.30;4.65;;;;;;;31.04;100.00;99627.00;1657124;85;21029;-66
2022/08/07 09:56:03;;;;;;;10.58;5.20;;;;;;;30.96;100.00;99621.40;1717517;82;21034;-66
2022/08/07 09:59:02;;;;;;;9.63;5.10;;;;;;;30.78;100.00;99608.56;1656863;85;21178;-67
2022/08/07 10:01:52;;;;;;;9.15;5.75;;;;;;;30.78;100.00;99608.56;1636995;87;21786;-65
2022/08/07 10:05:00;;;;;;;11.97;8.10;;;;;;;30.70;100.00;99605.80;1641937;86;21080;-67
2022/08/07 10:08:16;;;;;;;19.42;11.05;;;;;;;30.56;100.00;99602.19;1638614;85;21060;-66
2022/08/07 10:11:23;;;;;;;19.57;10.63;;;;;;;30.37;100.00;99596.93;1670793;84;20988;-65
2022/08/07 10:14:31;;;;;;;16.95;9.28;;;;;;;30.35;100.00;99590.28;1668768;84;21158;-66
2022/08/07 10:17:25;;;;;;;10.60;5.22;;;;;;;30.42;100.00;99598.42;1669848;84;21153;-65
2022/08/07 10:20:23;;;;;;;7.70;5.45;;;;;;;30.46;100.00;99603.34;1669256;84;21152;-68
2022/08/07 10:23:47;;;;;;;11.55;5.25;;;;;;;30.56;100.00;99613.56;1651408;85;21050;-66
2022/08/07 10:26:38;;;;;;;7.15;4.78;;;;;;;30.51;100.00;99623.27;1662683;84;21115;-67
2022/08/07 10:29:44;;;;;;;7.25;5.35;;;;;;;30.48;100.00;99649.95;1666333;84;21039;-75
2022/08/07 10:32:44;;;;;;;10.43;5.03;;;;;;;30.45;100.00;99642.96;1662850;84;21928;-65
2022/08/07 10:35:46;;;;;;;10.75;5.22;;;;;;;30.40;100.00;99632.17;1658477;86;21074;-67
2022/08/07 10:38:47;;;;;;;8.37;5.37;;;;;;;30.33;100.00;99625.45;1651905;86;21072;-65
2022/08/07 10:41:33;;;;;;;5.75;5.10;;;;;;;30.17;100.00;99613.56;1625535;86;21130;-67
2022/08/07 10:44:13;;;;;;;7.20;5.55;;;;;;;30.08;100.00;99602.08;1651543;84;21063;-66
2022/08/07 10:46:54;;;;;;;10.10;5.65;;;;;;;30.01;100.00;99608.78;1666083;84;21133;-66
2022/08/07 10:49:59;;;;;;;8.73;5.78;;;;;;;30.02;100.00;99617.48;1659571;84;21468;-66
2022/08/07 10:52:56;;;;;;;11.63;5.40;;;;;;;30.00;100.00;99620.78;1659488;84;21027;-66
2022/08/07 10:55:38;;;;;;;12.70;7.00;;;;;;;29.93;100.00;99630.13;1630857;85;21058;-66
2022/08/07 10:58:43;;;;;;;8.83;6.37;;;;;;;29.88;100.00;99634.33;1663619;84;21054;-67
2022/08/07 11:01:29;;;;;;;12.00;6.30;;;;;;;29.74;100.00;99638.38;1654675;84;21099;-69
2022/08/07 11:04:34;;;;;;;11.15;5.87;;;;;;;29.56;100.00;99638.27;1647979;85;21079;-65
2022/08/07 11:07:27;;;;;;;6.97;4.90;;;;;;;29.43;100.00;99636.02;1643015;85;21067;-65
2022/08/07 11:09:57;;;;;;;5.90;5.25;;;;;;;29.18;100.00;99630.40;1581409;90;21084;-67
2022/08/07 11:12:37;;;;;;;6.37;5.60;;;;;;;29.07;100.00;99613.70;1615592;85;21105;-66
2022/08/07 11:15:11;;;;;;;8.73;5.35;;;;;;;28.96;100.00;99619.00;1660848;85;21150;-68
2022/08/07 11:17:54;;;;;;;10.55;5.60;;;;;;;28.66;100.00;99620.35;1621016;86;21139;-67
2022/08/07 11:20:24;;;;;;;15.45;6.92;;;;;;;28.46;100.00;99622.47;1636693;86;21165;-67
2022/08/07 11:23:20;;;;;;;11.23;6.93;;;;;;;28.30;100.00;99616.33;1645455;85;21030;-65
2022/08/07 11:25:55;;;;;;;9.08;6.58;;;;;;;28.31;100.00;99611.47;1643765;86;21136;-66
2022/08/07 11:28:29;;;;;;;8.93;6.50;;;;;;;28.41;100.00;99613.89;1651746;86;21263;-65
2022/08/07 11:31:23;;;;;;;16.27;7.37;;;;;;;28.29;100.00;99609.08;1632267;87;21076;-67
2022/08/07 11:34:25;;;;;;;9.80;6.42;;;;;;;28.17;100.00;99607.74;1632547;86;21077;-67
2022/08/07 11:37:34;;;;;;;8.05;6.62;;;;;;;28.15;100.00;99606.61;1645419;85;21124;-68
2022/08/07 11:40:16;;;;;;;10.00;6.62;;;;;;;28.09;100.00;99606.92;1625918;86;21116;-65
2022/08/07 11:43:14;;;;;;;10.80;6.65;;;;;;;28.01;100.00;99624.70;1626011;88;21808;-68
2022/08/07 11:46:22;;;;;;;10.80;6.12;;;;;;;28.00;100.00;99641.49;1641517;87;21020;-67
2022/08/07 11:49:45;;;;;;;15.85;7.58;;;;;;;28.00;100.00;99659.89;1647070;86;21108;-66
2022/08/07 11:52:51;;;;;;;18.95;7.47;;;;;;;27.98;100.00;99665.99;1623464;87;21053;-66
2022/08/07 11:56:02;;;;;;;16.90;9.43;;;;;;;28.14;100.00;99670.91;1683967;82;21091;-67
2022/08/07 11:59:10;;;;;;;18.50;9.58;;;;;;;28.23;100.00;99659.60;1628409;86;21285;-67
2022/08/07 12:01:54;;;;;;;12.07;9.18;;;;;;;28.17;100.00;99657.91;1657925;85;21052;-70
2022/08/07 12:04:50;;;;;;;9.38;7.47;;;;;;;28.19;100.00;99660.48;1672692;84;21104;-74
2022/08/07 12:07:27;;;;;;;10.25;7.50;;;;;;;28.17;100.00;99662.95;1613997;85;21123;-69
2022/08/07 12:10:07;;;;;;;11.50;7.75;;;;;;;28.10;100.00;99660.91;1634603;85;21119;-66